sensor_id;sensor_type;location;lat;lon;timestamp;P1;durP1;ratioP1;P2;durP2;ratioP2
64387;SDS011;50709;52.648;4.764;2023-12-14T00:01:11;8.00;;;4.07;;
64387;SDS011;50709;52.648;4.764;2023-12-14T00:03:38;8.48;;;4.38;;
64387;SDS011;50709;52.648;4.764;2023-12-14T00:06:16;9.68;;;4.68;;
64387;SDS011;50709;52.648;4.764;2023-12-14T00:08:42;10.65;;;4.30;;
64387;SDS011;50709;52.648;4.764;2023-12-14T00:11:08;10.15;;;4.35;;
64387;SDS011;50709;52.648;4.764;2023-12-14T00:13:35;9.13;;;4.70;;
64387;SDS011;50709;52.648;4.764;2023-12-14T00:16:01;8.68;;;4.22;;
64387;SDS011;50709;52.648;4.764;2023-12-14T00:18:27;7.90;;;4.45;;
64387;SDS011;50709;52.648;4.764;2023-12-14T00:20:52;9.65;;;4.38;;
64387;SDS011;50709;52.648;4.764;2023-12-14T00:23:19;11.13;;;4.70;;
64387;SDS011;50709;52.648;4.764;2023-12-14T00:25:44;13.15;;;4.50;;
64387;SDS011;50709;52.648;4.764;2023-12-14T00:28:10;6.85;;;4.03;;
64387;SDS011;50709;52.648;4.764;2023-12-14T00:30:35;8.88;;;4.20;;
64387;SDS011;50709;52.648;4.764;2023-12-14T00:33:01;7.40;;;4.10;;
64387;SDS011;50709;52.648;4.764;2023-12-14T00:35:27;7.97;;;3.97;;
64387;SDS011;50709;52.648;4.764;2023-12-14T00:37:53;5.57;;;3.47;;
64387;SDS011;50709;52.648;4.764;2023-12-14T00:40:18;9.20;;;4.32;;
64387;SDS011;50709;52.648;4.764;2023-12-14T00:42:44;8.75;;;4.60;;
64387;SDS011;50709;52.648;4.764;2023-12-14T00:45:09;7.55;;;4.20;;
64387;SDS011;50709;52.648;4.764;2023-12-14T00:47:36;7.03;;;3.95;;
64387;SDS011;50709;52.648;4.764;2023-12-14T00:50:01;8.50;;;4.20;;
64387;SDS011;50709;52.648;4.764;2023-12-14T00:52:27;11.18;;;3.97;;
64387;SDS011;50709;52.648;4.764;2023-12-14T00:55:12;8.13;;;4.45;;
64387;SDS011;50709;52.648;4.764;2023-12-14T00:57:39;11.88;;;4.68;;
64387;SDS011;50709;52.648;4.764;2023-12-14T01:00:05;6.93;;;3.67;;
64387;SDS011;50709;52.648;4.764;2023-12-14T01:02:35;6.65;;;4.10;;
64387;SDS011;50709;52.648;4.764;2023-12-14T01:05:01;8.80;;;4.57;;
64387;SDS011;50709;52.648;4.764;2023-12-14T01:07:27;7.60;;;4.43;;
64387;SDS011;50709;52.648;4.764;2023-12-14T01:09:53;6.95;;;4.10;;
64387;SDS011;50709;52.648;4.764;2023-12-14T01:12:18;9.23;;;4.75;;
64387;SDS011;50709;52.648;4.764;2023-12-14T01:14:43;9.57;;;4.20;;
64387;SDS011;50709;52.648;4.764;2023-12-14T01:17:29;7.22;;;3.85;;
64387;SDS011;50709;52.648;4.764;2023-12-14T01:19:54;9.57;;;4.40;;
64387;SDS011;50709;52.648;4.764;2023-12-14T01:22:20;9.48;;;4.60;;
64387;SDS011;50709;52.648;4.764;2023-12-14T01:24:45;8.95;;;4.60;;
64387;SDS011;50709;52.648;4.764;2023-12-14T01:27:11;8.50;;;4.10;;
64387;SDS011;50709;52.648;4.764;2023-12-14T01:29:38;8.68;;;4.28;;
64387;SDS011;50709;52.648;4.764;2023-12-14T01:32:04;10.25;;;4.43;;
64387;SDS011;50709;52.648;4.764;2023-12-14T01:34:50;8.98;;;3.85;;
64387;SDS011;50709;52.648;4.764;2023-12-14T01:37:15;7.57;;;4.18;;
64387;SDS011;50709;52.648;4.764;2023-12-14T01:40:00;7.55;;;4.07;;
64387;SDS011;50709;52.648;4.764;2023-12-14T01:42:26;6.45;;;3.30;;
64387;SDS011;50709;52.648;4.764;2023-12-14T01:44:51;7.00;;;3.42;;
64387;SDS011;50709;52.648;4.764;2023-12-14T01:47:16;5.97;;;3.78;;
64387;SDS011;50709;52.648;4.764;2023-12-14T01:49:42;8.25;;;3.78;;
64387;SDS011;50709;52.648;4.764;2023-12-14T01:52:07;7.47;;;4.07;;
64387;SDS011;50709;52.648;4.764;2023-12-14T01:54:34;8.75;;;3.38;;
64387;SDS011;50709;52.648;4.764;2023-12-14T01:57:00;8.00;;;3.42;;
64387;SDS011;50709;52.648;4.764;2023-12-14T01:59:25;7.85;;;3.50;;
64387;SDS011;50709;52.648;4.764;2023-12-14T02:01:54;7.00;;;3.88;;
64387;SDS011;50709;52.648;4.764;2023-12-14T02:04:24;8.90;;;3.70;;
64387;SDS011;50709;52.648;4.764;2023-12-14T02:06:51;6.75;;;3.65;;
64387;SDS011;50709;52.648;4.764;2023-12-14T02:09:17;6.45;;;3.40;;
64387;SDS011;50709;52.648;4.764;2023-12-14T02:11:43;6.50;;;3.28;;
64387;SDS011;50709;52.648;4.764;2023-12-14T02:14:09;6.30;;;3.63;;
64387;SDS011;50709;52.648;4.764;2023-12-14T02:16:55;7.57;;;3.38;;
64387;SDS011;50709;52.648;4.764;2023-12-14T02:19:20;8.88;;;3.53;;
64387;SDS011;50709;52.648;4.764;2023-12-14T02:22:05;10.32;;;4.68;;
64387;SDS011;50709;52.648;4.764;2023-12-14T02:24:32;7.88;;;3.63;;
64387;SDS011;50709;52.648;4.764;2023-12-14T02:26:58;5.70;;;3.00;;
64387;SDS011;50709;52.648;4.764;2023-12-14T02:29:23;5.65;;;3.38;;
64387;SDS011;50709;52.648;4.764;2023-12-14T02:32:09;6.30;;;3.40;;
64387;SDS011;50709;52.648;4.764;2023-12-14T02:34:35;8.60;;;3.63;;
64387;SDS011;50709;52.648;4.764;2023-12-14T02:37:01;8.48;;;3.13;;
64387;SDS011;50709;52.648;4.764;2023-12-14T02:39:26;7.90;;;3.55;;
64387;SDS011;50709;52.648;4.764;2023-12-14T02:41:52;6.90;;;3.38;;
64387;SDS011;50709;52.648;4.764;2023-12-14T02:44:38;7.88;;;3.60;;
64387;SDS011;50709;52.648;4.764;2023-12-14T02:47:03;7.50;;;3.40;;
64387;SDS011;50709;52.648;4.764;2023-12-14T02:49:30;7.63;;;4.43;;
64387;SDS011;50709;52.648;4.764;2023-12-14T02:51:55;9.35;;;3.75;;
64387;SDS011;50709;52.648;4.764;2023-12-14T02:54:21;7.50;;;3.17;;
64387;SDS011;50709;52.648;4.764;2023-12-14T02:56:46;7.07;;;3.55;;
64387;SDS011;50709;52.648;4.764;2023-12-14T02:59:11;5.22;;;3.15;;
64387;SDS011;50709;52.648;4.764;2023-12-14T03:01:38;8.15;;;3.45;;
64387;SDS011;50709;52.648;4.764;2023-12-14T03:04:04;6.63;;;3.03;;
64387;SDS011;50709;52.648;4.764;2023-12-14T03:06:29;8.82;;;3.17;;
64387;SDS011;50709;52.648;4.764;2023-12-14T03:08:55;8.82;;;3.38;;
64387;SDS011;50709;52.648;4.764;2023-12-14T03:11:21;9.50;;;3.53;;
64387;SDS011;50709;52.648;4.764;2023-12-14T03:13:47;9.48;;;3.38;;
64387;SDS011;50709;52.648;4.764;2023-12-14T03:16:13;10.52;;;4.00;;
64387;SDS011;50709;52.648;4.764;2023-12-14T03:18:38;8.23;;;3.47;;
64387;SDS011;50709;52.648;4.764;2023-12-14T03:21:04;6.10;;;2.83;;
64387;SDS011;50709;52.648;4.764;2023-12-14T03:23:29;5.10;;;2.40;;
64387;SDS011;50709;52.648;4.764;2023-12-14T03:25:55;5.38;;;2.90;;
64387;SDS011;50709;52.648;4.764;2023-12-14T03:28:20;6.22;;;2.97;;
64387;SDS011;50709;52.648;4.764;2023-12-14T03:30:46;4.13;;;2.65;;
64387;SDS011;50709;52.648;4.764;2023-12-14T03:33:11;4.15;;;2.50;;
64387;SDS011;50709;52.648;4.764;2023-12-14T03:35:36;7.55;;;2.80;;
64387;SDS011;50709;52.648;4.764;2023-12-14T03:38:03;5.35;;;2.90;;
64387;SDS011;50709;52.648;4.764;2023-12-14T03:40:29;7.72;;;3.20;;
64387;SDS011;50709;52.648;4.764;2023-12-14T03:42:55;7.65;;;3.22;;
64387;SDS011;50709;52.648;4.764;2023-12-14T03:45:20;4.80;;;3.10;;
64387;SDS011;50709;52.648;4.764;2023-12-14T03:47:47;7.75;;;3.35;;
64387;SDS011;50709;52.648;4.764;2023-12-14T03:50:12;8.73;;;3.28;;
64387;SDS011;50709;52.648;4.764;2023-12-14T03:52:38;5.30;;;3.45;;
64387;SDS011;50709;52.648;4.764;2023-12-14T03:55:03;6.53;;;3.00;;
64387;SDS011;50709;52.648;4.764;2023-12-14T03:57:29;6.93;;;3.65;;
64387;SDS011;50709;52.648;4.764;2023-12-14T03:59:55;5.78;;;3.28;;
64387;SDS011;50709;52.648;4.764;2023-12-14T04:02:20;7.03;;;3.00;;
64387;SDS011;50709;52.648;4.764;2023-12-14T04:04:45;5.88;;;2.65;;
64387;SDS011;50709;52.648;4.764;2023-12-14T04:07:12;5.75;;;3.13;;
64387;SDS011;50709;52.648;4.764;2023-12-14T04:09:37;5.60;;;3.17;;
64387;SDS011;50709;52.648;4.764;2023-12-14T04:12:23;4.78;;;3.00;;
64387;SDS011;50709;52.648;4.764;2023-12-14T04:14:48;7.10;;;3.40;;
64387;SDS011;50709;52.648;4.764;2023-12-14T04:17:14;6.30;;;3.60;;
64387;SDS011;50709;52.648;4.764;2023-12-14T04:19:40;4.85;;;2.80;;
64387;SDS011;50709;52.648;4.764;2023-12-14T04:22:06;6.85;;;3.22;;
64387;SDS011;50709;52.648;4.764;2023-12-14T04:24:32;6.47;;;3.22;;
64387;SDS011;50709;52.648;4.764;2023-12-14T04:26:57;5.00;;;2.92;;
64387;SDS011;50709;52.648;4.764;2023-12-14T04:29:25;5.93;;;3.25;;
64387;SDS011;50709;52.648;4.764;2023-12-14T04:31:50;5.50;;;3.25;;
64387;SDS011;50709;52.648;4.764;2023-12-14T04:34:16;8.07;;;3.65;;
64387;SDS011;50709;52.648;4.764;2023-12-14T04:36:44;5.82;;;2.92;;
64387;SDS011;50709;52.648;4.764;2023-12-14T04:39:10;7.00;;;3.25;;
64387;SDS011;50709;52.648;4.764;2023-12-14T04:41:57;5.15;;;3.03;;
64387;SDS011;50709;52.648;4.764;2023-12-14T04:44:25;4.15;;;3.05;;
64387;SDS011;50709;52.648;4.764;2023-12-14T04:46:51;6.45;;;4.07;;
64387;SDS011;50709;52.648;4.764;2023-12-14T04:49:18;6.32;;;3.40;;
64387;SDS011;50709;52.648;4.764;2023-12-14T04:51:44;5.60;;;3.40;;
64387;SDS011;50709;52.648;4.764;2023-12-14T04:54:11;5.55;;;2.97;;
64387;SDS011;50709;52.648;4.764;2023-12-14T04:56:37;8.45;;;3.60;;
64387;SDS011;50709;52.648;4.764;2023-12-14T04:59:23;5.28;;;2.95;;
64387;SDS011;50709;52.648;4.764;2023-12-14T05:01:49;4.82;;;3.20;;
64387;SDS011;50709;52.648;4.764;2023-12-14T05:04:15;7.30;;;3.53;;
64387;SDS011;50709;52.648;4.764;2023-12-14T05:06:40;5.90;;;3.33;;
64387;SDS011;50709;52.648;4.764;2023-12-14T05:09:06;6.75;;;3.70;;
64387;SDS011;50709;52.648;4.764;2023-12-14T05:11:32;7.30;;;3.38;;
64387;SDS011;50709;52.648;4.764;2023-12-14T05:13:57;6.40;;;3.95;;
64387;SDS011;50709;52.648;4.764;2023-12-14T05:16:24;7.85;;;4.03;;
64387;SDS011;50709;52.648;4.764;2023-12-14T05:18:52;9.10;;;3.70;;
64387;SDS011;50709;52.648;4.764;2023-12-14T05:21:22;5.00;;;3.08;;
64387;SDS011;50709;52.648;4.764;2023-12-14T05:23:47;8.38;;;3.63;;
64387;SDS011;50709;52.648;4.764;2023-12-14T05:26:13;7.85;;;3.72;;
64387;SDS011;50709;52.648;4.764;2023-12-14T05:28:40;5.95;;;3.50;;
64387;SDS011;50709;52.648;4.764;2023-12-14T05:31:05;7.30;;;4.15;;
64387;SDS011;50709;52.648;4.764;2023-12-14T05:33:36;7.22;;;4.28;;
64387;SDS011;50709;52.648;4.764;2023-12-14T05:36:03;7.70;;;3.80;;
64387;SDS011;50709;52.648;4.764;2023-12-14T05:38:30;8.05;;;3.78;;
64387;SDS011;50709;52.648;4.764;2023-12-14T05:40:56;8.55;;;4.15;;
64387;SDS011;50709;52.648;4.764;2023-12-14T05:43:22;8.70;;;4.03;;
64387;SDS011;50709;52.648;4.764;2023-12-14T05:45:47;7.93;;;3.90;;
64387;SDS011;50709;52.648;4.764;2023-12-14T05:48:12;7.43;;;3.60;;
64387;SDS011;50709;52.648;4.764;2023-12-14T05:50:38;8.10;;;3.90;;
64387;SDS011;50709;52.648;4.764;2023-12-14T05:53:03;7.68;;;4.45;;
64387;SDS011;50709;52.648;4.764;2023-12-14T05:55:29;6.90;;;3.75;;
64387;SDS011;50709;52.648;4.764;2023-12-14T05:57:56;7.68;;;4.15;;
64387;SDS011;50709;52.648;4.764;2023-12-14T06:00:23;6.35;;;3.97;;
64387;SDS011;50709;52.648;4.764;2023-12-14T06:02:48;8.68;;;4.10;;
64387;SDS011;50709;52.648;4.764;2023-12-14T06:05:13;7.65;;;3.90;;
64387;SDS011;50709;52.648;4.764;2023-12-14T06:07:39;5.38;;;3.55;;
64387;SDS011;50709;52.648;4.764;2023-12-14T06:10:05;6.63;;;3.45;;
64387;SDS011;50709;52.648;4.764;2023-12-14T06:12:30;10.85;;;4.50;;
64387;SDS011;50709;52.648;4.764;2023-12-14T06:14:56;10.65;;;4.32;;
64387;SDS011;50709;52.648;4.764;2023-12-14T06:17:23;10.43;;;5.63;;
64387;SDS011;50709;52.648;4.764;2023-12-14T06:19:48;7.10;;;4.63;;
64387;SDS011;50709;52.648;4.764;2023-12-14T06:22:14;8.70;;;3.97;;
64387;SDS011;50709;52.648;4.764;2023-12-14T06:24:39;10.45;;;4.88;;
64387;SDS011;50709;52.648;4.764;2023-12-14T06:27:05;15.27;;;4.40;;
64387;SDS011;50709;52.648;4.764;2023-12-14T06:29:30;8.63;;;4.05;;
64387;SDS011;50709;52.648;4.764;2023-12-14T06:31:56;8.95;;;4.20;;
64387;SDS011;50709;52.648;4.764;2023-12-14T06:34:21;9.25;;;4.43;;
64387;SDS011;50709;52.648;4.764;2023-12-14T06:36:47;10.32;;;4.22;;
64387;SDS011;50709;52.648;4.764;2023-12-14T06:39:12;8.00;;;4.20;;
64387;SDS011;50709;52.648;4.764;2023-12-14T06:41:38;11.57;;;4.57;;
64387;SDS011;50709;52.648;4.764;2023-12-14T06:44:04;7.22;;;3.85;;
64387;SDS011;50709;52.648;4.764;2023-12-14T06:46:29;8.52;;;4.47;;
64387;SDS011;50709;52.648;4.764;2023-12-14T06:48:54;11.93;;;4.55;;
64387;SDS011;50709;52.648;4.764;2023-12-14T06:51:20;9.60;;;4.07;;
64387;SDS011;50709;52.648;4.764;2023-12-14T06:53:46;8.45;;;4.68;;
64387;SDS011;50709;52.648;4.764;2023-12-14T06:56:12;7.10;;;3.80;;
64387;SDS011;50709;52.648;4.764;2023-12-14T06:58:39;7.00;;;3.90;;
64387;SDS011;50709;52.648;4.764;2023-12-14T07:01:05;8.40;;;4.00;;
64387;SDS011;50709;52.648;4.764;2023-12-14T07:03:31;8.13;;;3.53;;
64387;SDS011;50709;52.648;4.764;2023-12-14T07:05:57;7.53;;;3.90;;
64387;SDS011;50709;52.648;4.764;2023-12-14T07:08:23;8.82;;;4.10;;
64387;SDS011;50709;52.648;4.764;2023-12-14T07:10:48;7.35;;;4.53;;
64387;SDS011;50709;52.648;4.764;2023-12-14T07:13:14;6.20;;;3.72;;
64387;SDS011;50709;52.648;4.764;2023-12-14T07:15:39;9.98;;;4.18;;
64387;SDS011;50709;52.648;4.764;2023-12-14T07:18:04;6.32;;;4.15;;
64387;SDS011;50709;52.648;4.764;2023-12-14T07:20:30;7.55;;;3.92;;
64387;SDS011;50709;52.648;4.764;2023-12-14T07:22:55;8.52;;;5.40;;
64387;SDS011;50709;52.648;4.764;2023-12-14T07:25:21;7.10;;;4.10;;
64387;SDS011;50709;52.648;4.764;2023-12-14T07:27:46;7.55;;;4.22;;
64387;SDS011;50709;52.648;4.764;2023-12-14T07:30:12;6.95;;;3.88;;
64387;SDS011;50709;52.648;4.764;2023-12-14T07:32:38;7.32;;;4.10;;
64387;SDS011;50709;52.648;4.764;2023-12-14T07:35:04;8.65;;;4.05;;
64387;SDS011;50709;52.648;4.764;2023-12-14T07:37:30;6.97;;;3.42;;
64387;SDS011;50709;52.648;4.764;2023-12-14T07:39:55;6.28;;;4.25;;
64387;SDS011;50709;52.648;4.764;2023-12-14T07:42:21;7.47;;;4.10;;
64387;SDS011;50709;52.648;4.764;2023-12-14T07:44:47;8.10;;;4.10;;
64387;SDS011;50709;52.648;4.764;2023-12-14T07:47:12;9.88;;;4.50;;
64387;SDS011;50709;52.648;4.764;2023-12-14T07:49:38;9.35;;;4.32;;
64387;SDS011;50709;52.648;4.764;2023-12-14T07:52:04;8.80;;;4.30;;
64387;SDS011;50709;52.648;4.764;2023-12-14T07:54:29;6.20;;;3.75;;
64387;SDS011;50709;52.648;4.764;2023-12-14T07:56:55;8.68;;;4.13;;
64387;SDS011;50709;52.648;4.764;2023-12-14T07:59:20;9.63;;;4.45;;
64387;SDS011;50709;52.648;4.764;2023-12-14T08:01:46;8.27;;;4.60;;
64387;SDS011;50709;52.648;4.764;2023-12-14T08:04:11;8.07;;;4.20;;
64387;SDS011;50709;52.648;4.764;2023-12-14T08:06:37;16.00;;;6.93;;
64387;SDS011;50709;52.648;4.764;2023-12-14T08:09:04;10.27;;;5.10;;
64387;SDS011;50709;52.648;4.764;2023-12-14T08:11:30;6.85;;;4.55;;
64387;SDS011;50709;52.648;4.764;2023-12-14T08:13:56;8.13;;;4.63;;
64387;SDS011;50709;52.648;4.764;2023-12-14T08:16:21;8.82;;;4.60;;
64387;SDS011;50709;52.648;4.764;2023-12-14T08:18:47;10.77;;;4.82;;
64387;SDS011;50709;52.648;4.764;2023-12-14T08:21:13;7.25;;;4.25;;
64387;SDS011;50709;52.648;4.764;2023-12-14T08:23:39;7.30;;;4.53;;
64387;SDS011;50709;52.648;4.764;2023-12-14T08:26:04;10.13;;;5.20;;
64387;SDS011;50709;52.648;4.764;2023-12-14T08:28:30;9.27;;;4.78;;
64387;SDS011;50709;52.648;4.764;2023-12-14T08:30:55;10.30;;;4.97;;
64387;SDS011;50709;52.648;4.764;2023-12-14T08:33:23;11.35;;;4.90;;
64387;SDS011;50709;52.648;4.764;2023-12-14T08:35:49;8.27;;;4.90;;
64387;SDS011;50709;52.648;4.764;2023-12-14T08:38:15;8.00;;;4.70;;
64387;SDS011;50709;52.648;4.764;2023-12-14T08:40:41;8.75;;;4.32;;
64387;SDS011;50709;52.648;4.764;2023-12-14T08:43:06;10.23;;;5.10;;
64387;SDS011;50709;52.648;4.764;2023-12-14T08:45:32;8.23;;;4.50;;
64387;SDS011;50709;52.648;4.764;2023-12-14T08:47:57;10.85;;;5.45;;
64387;SDS011;50709;52.648;4.764;2023-12-14T08:50:23;11.77;;;5.50;;
64387;SDS011;50709;52.648;4.764;2023-12-14T08:52:51;8.48;;;4.03;;
64387;SDS011;50709;52.648;4.764;2023-12-14T08:55:16;6.40;;;4.13;;
64387;SDS011;50709;52.648;4.764;2023-12-14T08:57:42;11.30;;;4.97;;
64387;SDS011;50709;52.648;4.764;2023-12-14T09:00:07;10.93;;;4.18;;
64387;SDS011;50709;52.648;4.764;2023-12-14T09:02:33;9.50;;;4.05;;
64387;SDS011;50709;52.648;4.764;2023-12-14T09:05:00;9.88;;;3.88;;
64387;SDS011;50709;52.648;4.764;2023-12-14T09:07:25;6.45;;;3.85;;
64387;SDS011;50709;52.648;4.764;2023-12-14T09:09:50;7.22;;;3.97;;
64387;SDS011;50709;52.648;4.764;2023-12-14T09:12:16;7.95;;;3.95;;
64387;SDS011;50709;52.648;4.764;2023-12-14T09:14:41;7.78;;;4.28;;
64387;SDS011;50709;52.648;4.764;2023-12-14T09:17:07;8.82;;;3.97;;
64387;SDS011;50709;52.648;4.764;2023-12-14T09:19:32;8.43;;;4.40;;
64387;SDS011;50709;52.648;4.764;2023-12-14T09:21:58;8.02;;;3.88;;
64387;SDS011;50709;52.648;4.764;2023-12-14T09:24:24;9.23;;;3.67;;
64387;SDS011;50709;52.648;4.764;2023-12-14T09:26:50;8.30;;;4.15;;
64387;SDS011;50709;52.648;4.764;2023-12-14T09:29:15;7.13;;;3.60;;
64387;SDS011;50709;52.648;4.764;2023-12-14T09:31:41;8.27;;;4.35;;
64387;SDS011;50709;52.648;4.764;2023-12-14T09:34:07;7.10;;;3.80;;
64387;SDS011;50709;52.648;4.764;2023-12-14T09:36:33;7.20;;;3.95;;
64387;SDS011;50709;52.648;4.764;2023-12-14T09:38:59;7.35;;;3.63;;
64387;SDS011;50709;52.648;4.764;2023-12-14T09:41:24;6.60;;;3.72;;
64387;SDS011;50709;52.648;4.764;2023-12-14T09:43:50;9.30;;;4.35;;
64387;SDS011;50709;52.648;4.764;2023-12-14T09:46:17;6.60;;;3.70;;
64387;SDS011;50709;52.648;4.764;2023-12-14T09:48:43;7.45;;;4.75;;
64387;SDS011;50709;52.648;4.764;2023-12-14T09:51:09;8.98;;;4.00;;
64387;SDS011;50709;52.648;4.764;2023-12-14T09:53:36;8.40;;;4.00;;
64387;SDS011;50709;52.648;4.764;2023-12-14T09:56:02;7.60;;;4.10;;
64387;SDS011;50709;52.648;4.764;2023-12-14T09:58:27;7.55;;;4.20;;
64387;SDS011;50709;52.648;4.764;2023-12-14T10:00:57;8.90;;;3.80;;
64387;SDS011;50709;52.648;4.764;2023-12-14T10:03:25;8.52;;;3.75;;
64387;SDS011;50709;52.648;4.764;2023-12-14T10:05:56;6.90;;;4.10;;
64387;SDS011;50709;52.648;4.764;2023-12-14T10:08:22;6.90;;;4.07;;
64387;SDS011;50709;52.648;4.764;2023-12-14T10:10:50;7.57;;;4.28;;
64387;SDS011;50709;52.648;4.764;2023-12-14T10:13:18;8.70;;;4.40;;
64387;SDS011;50709;52.648;4.764;2023-12-14T10:15:45;8.90;;;4.10;;
64387;SDS011;50709;52.648;4.764;2023-12-14T10:18:21;7.28;;;4.13;;
64387;SDS011;50709;52.648;4.764;2023-12-14T10:20:48;9.35;;;3.90;;
64387;SDS011;50709;52.648;4.764;2023-12-14T10:23:13;6.55;;;3.90;;
64387;SDS011;50709;52.648;4.764;2023-12-14T10:25:39;9.68;;;4.60;;
64387;SDS011;50709;52.648;4.764;2023-12-14T10:28:04;7.82;;;3.83;;
64387;SDS011;50709;52.648;4.764;2023-12-14T10:30:30;8.65;;;4.30;;
64387;SDS011;50709;52.648;4.764;2023-12-14T10:32:56;9.00;;;4.72;;
64387;SDS011;50709;52.648;4.764;2023-12-14T10:35:21;7.53;;;4.25;;
64387;SDS011;50709;52.648;4.764;2023-12-14T10:37:48;8.55;;;4.22;;
64387;SDS011;50709;52.648;4.764;2023-12-14T10:40:15;9.32;;;4.22;;
64387;SDS011;50709;52.648;4.764;2023-12-14T10:42:42;7.15;;;3.92;;
64387;SDS011;50709;52.648;4.764;2023-12-14T10:45:12;8.15;;;4.10;;
64387;SDS011;50709;52.648;4.764;2023-12-14T10:47:44;8.45;;;5.03;;
64387;SDS011;50709;52.648;4.764;2023-12-14T10:50:10;7.43;;;4.20;;
64387;SDS011;50709;52.648;4.764;2023-12-14T10:52:37;8.07;;;4.43;;
64387;SDS011;50709;52.648;4.764;2023-12-14T10:55:06;11.18;;;4.50;;
64387;SDS011;50709;52.648;4.764;2023-12-14T10:57:36;8.48;;;4.10;;
64387;SDS011;50709;52.648;4.764;2023-12-14T11:00:04;6.10;;;4.20;;
64387;SDS011;50709;52.648;4.764;2023-12-14T11:02:40;9.55;;;4.85;;
64387;SDS011;50709;52.648;4.764;2023-12-14T11:05:11;8.00;;;4.55;;
64387;SDS011;50709;52.648;4.764;2023-12-14T11:10:19;6.95;;;4.22;;
64387;SDS011;50709;52.648;4.764;2023-12-14T11:12:52;8.88;;;4.78;;
64387;SDS011;50709;52.648;4.764;2023-12-14T11:15:21;8.20;;;4.10;;
64387;SDS011;50709;52.648;4.764;2023-12-14T11:26:03;6.13;;;4.00;;
64387;SDS011;50709;52.648;4.764;2023-12-14T11:28:34;6.95;;;3.55;;
64387;SDS011;50709;52.648;4.764;2023-12-14T11:31:01;9.10;;;4.65;;
64387;SDS011;50709;52.648;4.764;2023-12-14T11:33:27;7.03;;;3.78;;
64387;SDS011;50709;52.648;4.764;2023-12-14T11:35:54;6.28;;;3.50;;
64387;SDS011;50709;52.648;4.764;2023-12-14T11:38:19;7.50;;;3.92;;
64387;SDS011;50709;52.648;4.764;2023-12-14T11:40:46;7.60;;;4.28;;
64387;SDS011;50709;52.648;4.764;2023-12-14T11:43:14;7.60;;;4.30;;
64387;SDS011;50709;52.648;4.764;2023-12-14T11:45:40;9.70;;;4.15;;
64387;SDS011;50709;52.648;4.764;2023-12-14T11:48:10;6.88;;;4.03;;
64387;SDS011;50709;52.648;4.764;2023-12-14T11:50:37;8.65;;;4.35;;
64387;SDS011;50709;52.648;4.764;2023-12-14T11:53:03;6.55;;;4.13;;
64387;SDS011;50709;52.648;4.764;2023-12-14T11:55:30;8.52;;;4.38;;
64387;SDS011;50709;52.648;4.764;2023-12-14T11:57:57;7.88;;;4.05;;
64387;SDS011;50709;52.648;4.764;2023-12-14T12:00:24;8.85;;;4.82;;
64387;SDS011;50709;52.648;4.764;2023-12-14T12:03:26;7.57;;;4.90;;
64387;SDS011;50709;52.648;4.764;2023-12-14T12:05:46;6.82;;;4.18;;
64387;SDS011;50709;52.648;4.764;2023-12-14T12:08:14;8.20;;;4.63;;
64387;SDS011;50709;52.648;4.764;2023-12-14T12:10:41;9.45;;;4.75;;
64387;SDS011;50709;52.648;4.764;2023-12-14T12:13:09;8.32;;;4.47;;
64387;SDS011;50709;52.648;4.764;2023-12-14T12:15:37;11.00;;;5.32;;
64387;SDS011;50709;52.648;4.764;2023-12-14T12:18:06;9.75;;;4.80;;
64387;SDS011;50709;52.648;4.764;2023-12-14T12:20:32;8.93;;;4.68;;
64387;SDS011;50709;52.648;4.764;2023-12-14T12:22:58;11.07;;;4.88;;
64387;SDS011;50709;52.648;4.764;2023-12-14T12:25:24;7.65;;;4.50;;
64387;SDS011;50709;52.648;4.764;2023-12-14T12:27:51;8.48;;;4.55;;
64387;SDS011;50709;52.648;4.764;2023-12-14T12:30:17;8.57;;;3.78;;
64387;SDS011;50709;52.648;4.764;2023-12-14T12:32:42;5.82;;;3.35;;
64387;SDS011;50709;52.648;4.764;2023-12-14T12:35:08;6.97;;;3.67;;
64387;SDS011;50709;52.648;4.764;2023-12-14T12:37:34;7.43;;;4.38;;
64387;SDS011;50709;52.648;4.764;2023-12-14T12:40:00;7.25;;;4.35;;
64387;SDS011;50709;52.648;4.764;2023-12-14T12:42:25;8.73;;;4.22;;
64387;SDS011;50709;52.648;4.764;2023-12-14T12:44:51;6.90;;;3.40;;
64387;SDS011;50709;52.648;4.764;2023-12-14T12:47:17;7.18;;;3.80;;
64387;SDS011;50709;52.648;4.764;2023-12-14T12:49:42;8.95;;;4.47;;
64387;SDS011;50709;52.648;4.764;2023-12-14T12:52:08;8.45;;;4.32;;
64387;SDS011;50709;52.648;4.764;2023-12-14T12:54:34;8.48;;;3.58;;
64387;SDS011;50709;52.648;4.764;2023-12-14T12:57:00;6.47;;;3.70;;
64387;SDS011;50709;52.648;4.764;2023-12-14T12:59:25;6.05;;;3.25;;
64387;SDS011;50709;52.648;4.764;2023-12-14T13:01:50;7.75;;;3.60;;
64387;SDS011;50709;52.648;4.764;2023-12-14T13:04:19;5.68;;;3.30;;
64387;SDS011;50709;52.648;4.764;2023-12-14T13:06:48;5.30;;;2.95;;
64387;SDS011;50709;52.648;4.764;2023-12-14T13:09:14;5.75;;;2.92;;
64387;SDS011;50709;52.648;4.764;2023-12-14T13:11:41;5.55;;;3.00;;
64387;SDS011;50709;52.648;4.764;2023-12-14T13:14:10;5.78;;;3.08;;
64387;SDS011;50709;52.648;4.764;2023-12-14T13:16:36;6.47;;;2.70;;
64387;SDS011;50709;52.648;4.764;2023-12-14T13:19:02;7.30;;;3.40;;
64387;SDS011;50709;52.648;4.764;2023-12-14T13:21:29;5.25;;;3.13;;
64387;SDS011;50709;52.648;4.764;2023-12-14T13:23:54;9.13;;;3.78;;
64387;SDS011;50709;52.648;4.764;2023-12-14T13:26:22;5.20;;;3.00;;
64387;SDS011;50709;52.648;4.764;2023-12-14T13:28:47;8.85;;;3.45;;
64387;SDS011;50709;52.648;4.764;2023-12-14T13:31:13;6.93;;;3.30;;
64387;SDS011;50709;52.648;4.764;2023-12-14T13:33:38;6.45;;;3.30;;
64387;SDS011;50709;52.648;4.764;2023-12-14T13:36:03;5.43;;;3.20;;
64387;SDS011;50709;52.648;4.764;2023-12-14T13:38:29;6.65;;;3.22;;
64387;SDS011;50709;52.648;4.764;2023-12-14T13:40:56;7.07;;;3.28;;
64387;SDS011;50709;52.648;4.764;2023-12-14T13:43:22;6.40;;;3.35;;
64387;SDS011;50709;52.648;4.764;2023-12-14T13:45:47;6.78;;;3.10;;
64387;SDS011;50709;52.648;4.764;2023-12-14T13:48:12;6.57;;;3.45;;
64387;SDS011;50709;52.648;4.764;2023-12-14T13:50:38;5.80;;;3.60;;
64387;SDS011;50709;52.648;4.764;2023-12-14T13:53:04;9.88;;;3.25;;
64387;SDS011;50709;52.648;4.764;2023-12-14T13:55:29;7.40;;;3.50;;
64387;SDS011;50709;52.648;4.764;2023-12-14T13:57:55;6.47;;;3.53;;
64387;SDS011;50709;52.648;4.764;2023-12-14T14:00:23;5.60;;;3.35;;
64387;SDS011;50709;52.648;4.764;2023-12-14T14:02:49;7.68;;;3.72;;
64387;SDS011;50709;52.648;4.764;2023-12-14T14:05:14;8.32;;;3.92;;
64387;SDS011;50709;52.648;4.764;2023-12-14T14:07:40;5.68;;;3.13;;
64387;SDS011;50709;52.648;4.764;2023-12-14T14:10:05;8.25;;;4.30;;
64387;SDS011;50709;52.648;4.764;2023-12-14T14:12:31;7.20;;;4.07;;
64387;SDS011;50709;52.648;4.764;2023-12-14T14:14:56;8.68;;;3.83;;
64387;SDS011;50709;52.648;4.764;2023-12-14T14:17:22;7.53;;;3.80;;
64387;SDS011;50709;52.648;4.764;2023-12-14T14:19:47;6.75;;;3.95;;
64387;SDS011;50709;52.648;4.764;2023-12-14T14:22:12;9.15;;;3.70;;
64387;SDS011;50709;52.648;4.764;2023-12-14T14:24:38;9.02;;;4.53;;
64387;SDS011;50709;52.648;4.764;2023-12-14T14:27:03;8.23;;;4.20;;
64387;SDS011;50709;52.648;4.764;2023-12-14T14:29:29;7.00;;;3.88;;
64387;SDS011;50709;52.648;4.764;2023-12-14T14:31:54;8.48;;;4.22;;
64387;SDS011;50709;52.648;4.764;2023-12-14T14:34:20;8.52;;;4.57;;
64387;SDS011;50709;52.648;4.764;2023-12-14T14:36:47;10.00;;;4.15;;
64387;SDS011;50709;52.648;4.764;2023-12-14T14:39:12;6.38;;;4.40;;
64387;SDS011;50709;52.648;4.764;2023-12-14T14:41:37;9.00;;;4.53;;
64387;SDS011;50709;52.648;4.764;2023-12-14T14:44:03;6.25;;;3.92;;
64387;SDS011;50709;52.648;4.764;2023-12-14T14:46:29;6.40;;;4.30;;
64387;SDS011;50709;52.648;4.764;2023-12-14T14:48:55;6.82;;;4.00;;
64387;SDS011;50709;52.648;4.764;2023-12-14T14:51:20;7.20;;;3.50;;
64387;SDS011;50709;52.648;4.764;2023-12-14T14:53:45;7.85;;;3.92;;